createdAt,value
2018-01-01T00:00:07.137Z,4.87
2018-01-01T00:02:38.204Z,8.20
2018-01-01T00:05:06.401Z,4.90
2018-01-01T00:07:35.328Z,6.73
2018-01-01T00:10:04.061Z,5.20
2018-01-01T00:12:32.208Z,5.00
2018-01-01T00:15:00.391Z,4.27
2018-01-01T00:17:28.524Z,5.60
2018-01-01T00:19:57.457Z,5.33
2018-01-01T00:22:25.628Z,7.40
2018-01-01T00:24:53.793Z,5.10
2018-01-01T00:27:21.985Z,6.53
2018-01-01T00:29:50.153Z,5.17
2018-01-01T00:32:18.299Z,6.23
2018-01-01T00:34:46.493Z,8.03
2018-01-01T00:37:14.660Z,5.47
2018-01-01T00:39:43.672Z,11.73
2018-01-01T00:42:11.810Z,8.07
2018-01-01T00:44:40.029Z,6.23
2018-01-01T00:47:08.607Z,6.33
2018-01-01T00:49:36.786Z,4.10
2018-01-01T00:52:04.940Z,5.80
2018-01-01T00:54:33.118Z,5.73
2018-01-01T00:57:01.301Z,4.30
2018-01-01T00:59:29.806Z,6.03
2018-01-01T01:01:57.952Z,4.73
2018-01-01T01:04:26.182Z,6.00
2018-01-01T01:06:55.097Z,4.23
2018-01-01T01:09:23.281Z,5.00
2018-01-01T01:11:51.449Z,6.07
2018-01-01T01:14:19.632Z,6.60
2018-01-01T01:16:47.788Z,6.10
2018-01-01T01:19:15.946Z,8.07
2018-01-01T01:21:44.876Z,4.80
2018-01-01T01:24:13.054Z,5.47
2018-01-01T01:26:41.209Z,7.23
2018-01-01T01:29:09.367Z,8.27
2018-01-01T01:31:38.297Z,6.20
2018-01-01T01:34:06.450Z,5.23
2018-01-01T01:36:34.625Z,4.67
2018-01-01T01:39:03.478Z,12.63
2018-01-01T01:41:31.695Z,5.40
2018-01-01T01:44:00.828Z,7.40
2018-01-01T01:46:29.017Z,7.83
2018-01-01T01:48:57.172Z,7.97
2018-01-01T01:51:26.145Z,6.53
2018-01-01T01:53:54.313Z,9.10
2018-01-01T01:56:22.490Z,8.13
2018-01-01T01:58:50.645Z,11.60
2018-01-01T02:01:18.827Z,8.80
2018-01-01T02:03:46.986Z,11.00
2018-01-01T02:06:15.165Z,9.80
2018-01-01T02:08:43.782Z,9.50
2018-01-01T02:11:12.043Z,9.50
2018-01-01T02:13:40.180Z,9.30
2018-01-01T02:16:09.148Z,10.90
2018-01-01T02:18:37.317Z,11.50
2018-01-01T02:21:05.665Z,10.40
2018-01-01T02:23:33.832Z,11.20
2018-01-01T02:26:01.992Z,14.20
2018-01-01T02:28:30.162Z,15.50
2018-01-01T02:30:58.357Z,12.27
2018-01-01T02:33:26.515Z,16.57
2018-01-01T02:35:54.698Z,17.67
2018-01-01T02:38:22.841Z,18.77
2018-01-01T02:40:51.797Z,13.07
2018-01-01T02:43:20.550Z,10.50
2018-01-01T02:45:49.161Z,16.00
2018-01-01T02:48:17.322Z,10.60
2018-01-01T02:50:45.513Z,9.70
2018-01-01T02:53:13.706Z,10.83
2018-01-01T02:55:41.895Z,11.30
2018-01-01T02:58:10.822Z,10.30
2018-01-01T03:00:38.987Z,11.10
2018-01-01T03:03:07.270Z,10.10
2018-01-01T03:05:35.449Z,10.30
2018-01-01T03:08:04.253Z,7.97
2018-01-01T03:10:32.426Z,10.53
2018-01-01T03:13:00.581Z,11.00
2018-01-01T03:15:29.236Z,6.30
2018-01-01T03:17:58.177Z,10.20
2018-01-01T03:20:26.365Z,12.53
2018-01-01T03:22:54.548Z,5.40
2018-01-01T03:25:22.739Z,5.07
2018-01-01T03:27:51.709Z,9.83
2018-01-01T03:30:19.908Z,6.80
2018-01-01T03:32:48.073Z,10.77
2018-01-01T03:35:16.288Z,7.87
2018-01-01T03:37:45.200Z,12.40
2018-01-01T03:40:13.375Z,6.53
2018-01-01T03:42:41.520Z,14.23
2018-01-01T03:45:10.428Z,5.50
2018-01-01T03:47:38.606Z,6.10
2018-01-01T03:50:06.758Z,5.97
2018-01-01T03:52:35.691Z,10.53
2018-01-01T03:55:03.864Z,7.33
2018-01-01T03:57:32.061Z,7.23
2018-01-01T04:00:00.195Z,10.13
2018-01-01T04:02:28.361Z,9.23
2018-01-01T04:04:56.530Z,9.67
2018-01-01T04:07:24.692Z,7.60
2018-01-01T04:09:53.606Z,7.03
2018-01-01T04:12:21.781Z,5.60
2018-01-01T04:14:49.949Z,4.43
2018-01-01T04:17:18.591Z,4.87
2018-01-01T04:19:46.733Z,6.10
2018-01-01T04:22:14.903Z,6.10
2018-01-01T04:24:43.094Z,7.10
2018-01-01T04:27:11.277Z,6.37
2018-01-01T04:29:39.440Z,5.33
2018-01-01T04:32:07.616Z,5.93
2018-01-01T04:34:35.760Z,1.87
2018-01-01T04:37:04.228Z,4.67
2018-01-01T04:39:32.368Z,6.97
2018-01-01T04:42:00.606Z,6.17
2018-01-01T04:44:28.989Z,3.23
2018-01-01T04:46:57.161Z,4.57
2018-01-01T04:49:25.322Z,6.20
2018-01-01T04:51:53.478Z,7.50
2018-01-01T04:54:21.655Z,4.87
2018-01-01T04:56:50.578Z,4.40
2018-01-01T04:59:18.782Z,5.10
2018-01-01T05:01:46.972Z,4.00
2018-01-01T05:04:15.892Z,1.37
2018-01-01T05:06:44.053Z,3.67
2018-01-01T05:09:12.212Z,4.27
2018-01-01T05:11:40.394Z,4.37
2018-01-01T05:14:09.289Z,2.63
2018-01-01T05:16:38.213Z,3.60
2018-01-01T05:19:06.357Z,5.60
2018-01-01T05:21:35.296Z,9.43
2018-01-01T05:24:03.786Z,3.73
2018-01-01T05:26:32.469Z,2.40
2018-01-01T05:29:00.639Z,2.77
2018-01-01T05:31:28.881Z,3.70
2018-01-01T05:33:57.041Z,3.87
2018-01-01T05:36:26.458Z,7.40
2018-01-01T05:38:54.596Z,4.63
2018-01-01T05:41:22.758Z,4.87
2018-01-01T05:43:50.901Z,4.87
2018-01-01T05:46:19.116Z,7.47
2018-01-01T05:48:47.250Z,3.00
2018-01-01T05:51:15.423Z,3.60
2018-01-01T05:53:43.573Z,3.37
2018-01-01T05:56:11.753Z,3.97
2018-01-01T05:58:39.885Z,4.40
2018-01-01T06:01:08.068Z,2.40
2018-01-01T06:03:36.200Z,4.50
2018-01-01T06:06:04.340Z,1.63
2018-01-01T06:08:32.547Z,2.67
2018-01-01T06:11:01.049Z,2.13
2018-01-01T06:13:29.300Z,3.80
2018-01-01T06:15:57.440Z,7.63
2018-01-01T06:18:26.362Z,2.60
2018-01-01T06:20:54.521Z,5.27
2018-01-01T06:23:22.684Z,4.27
2018-01-01T06:25:51.581Z,3.43
2018-01-01T06:28:19.737Z,3.67
2018-01-01T06:30:48.665Z,5.43
2018-01-01T06:33:16.847Z,4.60
2018-01-01T06:35:44.990Z,3.80
2018-01-01T06:38:13.160Z,2.40
2018-01-01T06:40:42.542Z,4.60
2018-01-01T06:43:11.489Z,5.50
2018-01-01T06:45:39.640Z,5.33
2018-01-01T06:48:07.807Z,3.43
2018-01-01T06:50:35.963Z,4.03
2018-01-01T06:53:04.902Z,4.07
2018-01-01T06:55:33.039Z,5.43
2018-01-01T06:58:01.211Z,5.33
2018-01-01T07:00:29.477Z,4.13
2018-01-01T07:02:58.469Z,4.87
2018-01-01T07:05:27.373Z,1.63
2018-01-01T07:07:55.548Z,3.27
2018-01-01T07:10:24.448Z,2.90
2018-01-01T07:12:53.460Z,5.83
2018-01-01T07:15:21.633Z,3.50
2018-01-01T07:17:49.782Z,5.10
2018-01-01T07:20:18.682Z,7.20
2018-01-01T07:22:46.851Z,3.90
2018-01-01T07:25:14.993Z,7.57
2018-01-01T07:27:43.926Z,3.50
2018-01-01T07:30:12.069Z,1.53
2018-01-01T07:32:41.010Z,10.33
2018-01-01T07:35:09.205Z,10.00
2018-01-01T07:37:37.395Z,2.63
2018-01-01T07:40:05.565Z,2.97
2018-01-01T07:42:33.798Z,3.20
2018-01-01T07:45:02.025Z,4.40
2018-01-01T07:47:30.460Z,5.70
2018-01-01T07:49:58.640Z,3.70
2018-01-01T07:52:26.830Z,2.30
2018-01-01T07:54:55.802Z,2.53
2018-01-01T07:57:23.969Z,7.70
2018-01-01T07:59:52.113Z,3.33
2018-01-01T08:02:21.079Z,4.80
2018-01-01T08:04:50.013Z,5.87
2018-01-01T08:07:18.207Z,5.13
2018-01-01T08:09:46.364Z,7.40
2018-01-01T08:12:15.208Z,7.47
2018-01-01T08:14:43.396Z,8.80
2018-01-01T08:17:11.599Z,5.00
2018-01-01T08:19:40.162Z,5.27
2018-01-01T08:22:09.231Z,3.20
2018-01-01T08:24:37.399Z,4.13
2018-01-01T08:27:05.528Z,7.43
2018-01-01T08:29:33.705Z,2.60
2018-01-01T08:32:02.418Z,4.20
2018-01-01T08:34:31.351Z,2.97
2018-01-01T08:37:00.311Z,3.63
2018-01-01T08:39:28.483Z,3.40
2018-01-01T08:41:56.750Z,2.87
2018-01-01T08:44:24.911Z,7.13
2018-01-01T08:46:53.075Z,3.00
2018-01-01T08:49:21.238Z,3.00
2018-01-01T08:51:50.150Z,4.70
2018-01-01T08:54:18.350Z,4.57
2018-01-01T08:56:46.692Z,3.43
2018-01-01T08:59:14.899Z,4.93
2018-01-01T09:01:43.793Z,5.23
2018-01-01T09:04:11.973Z,6.60
2018-01-01T09:06:40.116Z,3.90
2018-01-01T09:09:08.376Z,3.50
2018-01-01T09:11:42.356Z,4.30
2018-01-01T09:14:10.622Z,8.33
2018-01-01T09:16:38.774Z,9.00
2018-01-01T09:19:06.966Z,3.93
2018-01-01T09:21:35.903Z,7.53
2018-01-01T09:24:04.066Z,3.83
2018-01-01T09:26:33.213Z,8.80
2018-01-01T09:29:01.605Z,4.90
2018-01-01T09:31:29.748Z,4.40
2018-01-01T09:33:58.115Z,2.83
2018-01-01T09:36:26.289Z,4.50
2018-01-01T09:38:54.660Z,3.53
2018-01-01T09:41:23.406Z,4.07
2018-01-01T09:43:51.938Z,5.53
2018-01-01T09:46:20.493Z,3.23
2018-01-01T09:48:48.882Z,2.77
2018-01-01T09:51:18.158Z,6.40
2018-01-01T09:53:46.737Z,3.30
2018-01-01T09:56:14.997Z,5.27
2018-01-01T09:58:43.181Z,2.90
2018-01-01T10:01:11.338Z,3.10
2018-01-01T10:03:39.577Z,12.10
2018-01-01T10:06:08.132Z,3.43
2018-01-01T10:08:36.371Z,2.80
2018-01-01T10:11:04.517Z,1.40
2018-01-01T10:13:33.477Z,3.10
2018-01-01T10:16:01.922Z,7.40
2018-01-01T10:18:30.916Z,5.10
2018-01-01T10:20:59.068Z,4.00
2018-01-01T10:23:28.000Z,2.73
2018-01-01T10:25:56.591Z,3.00
2018-01-01T10:28:24.792Z,4.60
2018-01-01T10:30:52.944Z,2.57
2018-01-01T10:33:21.107Z,2.70
2018-01-01T10:35:49.280Z,2.13
2018-01-01T10:38:17.498Z,2.43
2018-01-01T10:40:46.417Z,3.10
2018-01-01T10:43:15.585Z,3.90
2018-01-01T10:45:43.752Z,3.07
2018-01-01T10:48:12.370Z,2.37
2018-01-01T10:50:41.045Z,5.10
2018-01-01T10:53:10.027Z,5.27
2018-01-01T10:55:38.965Z,3.77
2018-01-01T10:58:07.898Z,6.07
2018-01-01T11:00:36.068Z,2.50
2018-01-01T11:03:04.661Z,5.03
2018-01-01T11:05:33.645Z,3.07
2018-01-01T11:08:01.912Z,3.43
2018-01-01T11:10:30.083Z,3.80
2018-01-01T11:12:58.253Z,3.20
2018-01-01T11:15:26.468Z,3.70
2018-01-01T11:17:54.617Z,5.60
2018-01-01T11:20:22.800Z,6.73
2018-01-01T11:22:50.949Z,5.43
2018-01-01T11:25:19.144Z,4.80
2018-01-01T11:27:47.309Z,1.93
2018-01-01T11:30:15.505Z,4.40
2018-01-01T11:32:43.648Z,3.93
2018-01-01T11:35:11.825Z,2.83
2018-01-01T11:37:39.997Z,2.60
2018-01-01T11:40:08.202Z,3.07
2018-01-01T11:42:36.431Z,2.50
2018-01-01T11:45:04.604Z,2.27
2018-01-01T11:47:32.772Z,5.30
2018-01-01T11:50:00.959Z,3.73
2018-01-01T11:52:30.165Z,3.70
2018-01-01T11:54:58.341Z,3.37
2018-01-01T11:57:26.476Z,4.03
2018-01-01T11:59:54.656Z,2.33
2018-01-01T12:02:22.792Z,4.00
2018-01-01T12:04:50.966Z,3.53
2018-01-01T12:07:19.125Z,2.80
2018-01-01T12:09:47.290Z,3.33
2018-01-01T12:12:19.539Z,2.67
2018-01-01T12:14:43.809Z,4.87
2018-01-01T12:17:12.931Z,3.20
2018-01-01T12:19:41.315Z,2.80
2018-01-01T12:22:10.396Z,2.17
2018-01-01T12:24:38.581Z,2.27
2018-01-01T12:27:06.733Z,3.00
2018-01-01T12:29:34.915Z,2.83
2018-01-01T12:32:03.074Z,9.37
2018-01-01T12:34:31.276Z,5.97
2018-01-01T12:36:59.482Z,1.23
2018-01-01T12:39:27.752Z,3.27
2018-01-01T12:41:55.927Z,2.10
2018-01-01T12:44:26.316Z,1.87
2018-01-01T12:46:54.612Z,5.50
2018-01-01T12:49:22.829Z,2.10
2018-01-01T12:51:51.940Z,1.57
2018-01-01T12:54:20.921Z,1.33
2018-01-01T12:56:49.280Z,1.00
2018-01-01T12:59:17.428Z,1.43
2018-01-01T13:01:45.608Z,0.70
2018-01-01T13:04:13.816Z,1.30
2018-01-01T13:06:42.053Z,0.90
2018-01-01T13:09:10.338Z,1.17
2018-01-01T13:11:38.534Z,1.90
2018-01-01T13:14:08.153Z,2.50
2018-01-01T13:16:36.320Z,3.70
2018-01-01T13:19:04.736Z,4.23
2018-01-01T13:21:33.014Z,2.87
2018-01-01T13:24:01.219Z,2.90
2018-01-01T13:26:30.157Z,1.80
2018-01-01T13:28:59.232Z,2.73
2018-01-01T13:31:27.434Z,3.57
2018-01-01T13:33:56.526Z,4.40
2018-01-01T13:36:25.613Z,1.40
2018-01-01T13:38:53.822Z,2.00
2018-01-01T13:41:22.250Z,1.67
2018-01-01T13:43:50.634Z,2.90
2018-01-01T13:46:18.827Z,1.93
2018-01-01T13:48:47.827Z,1.83
2018-01-01T13:51:16.800Z,5.57
2018-01-01T13:53:44.946Z,2.30
2018-01-01T13:56:13.251Z,3.60
2018-01-01T13:58:41.434Z,1.97
2018-01-01T14:01:10.629Z,3.80
2018-01-01T14:03:38.798Z,4.10
2018-01-01T14:06:07.095Z,1.70
2018-01-01T14:08:36.025Z,6.30
2018-01-01T14:11:05.061Z,4.27
2018-01-01T14:13:33.805Z,3.13
2018-01-01T14:16:02.021Z,2.07
2018-01-01T14:18:30.192Z,10.00
2018-01-01T14:20:58.390Z,1.53
2018-01-01T14:23:27.504Z,5.10
2018-01-01T14:25:56.897Z,3.40
2018-01-01T14:28:25.826Z,3.53
2018-01-01T14:30:54.057Z,4.57
2018-01-01T14:33:22.408Z,3.80
2018-01-01T14:35:50.590Z,3.50
2018-01-01T14:38:18.931Z,1.97
2018-01-01T14:40:47.104Z,7.37
2018-01-01T14:43:15.673Z,3.00
2018-01-01T14:45:44.823Z,14.13
2018-01-01T14:48:12.976Z,3.27
2018-01-01T14:50:41.166Z,10.33
2018-01-01T14:53:09.309Z,4.20
2018-01-01T14:55:37.484Z,4.80
2018-01-01T14:58:06.409Z,5.00
2018-01-01T15:00:34.636Z,3.83
2018-01-01T15:03:03.936Z,4.80
2018-01-01T15:05:32.172Z,5.63
2018-01-01T15:08:00.353Z,3.33
2018-01-01T15:10:28.526Z,3.83
2018-01-01T15:12:56.699Z,3.50
2018-01-01T15:15:24.889Z,4.10
2018-01-01T15:17:53.117Z,5.67
2018-01-01T15:20:21.315Z,3.60
2018-01-01T15:22:49.469Z,3.33
2018-01-01T15:25:17.649Z,6.40
2018-01-01T15:27:46.574Z,6.20
2018-01-01T15:30:14.763Z,5.20
2018-01-01T15:32:42.935Z,3.97
2018-01-01T15:35:11.132Z,2.57
2018-01-01T15:37:40.061Z,3.03
2018-01-01T15:40:08.246Z,4.50
2018-01-01T15:42:36.712Z,3.80
2018-01-01T15:45:04.950Z,5.30
2018-01-01T15:47:33.150Z,2.60
2018-01-01T15:50:01.303Z,3.67
2018-01-01T15:52:30.275Z,5.03
2018-01-01T15:54:58.423Z,4.70
2018-01-01T15:57:26.604Z,4.27
2018-01-01T15:59:54.776Z,4.40
2018-01-01T16:02:22.959Z,5.57
2018-01-01T16:04:51.111Z,4.70
2018-01-01T16:07:19.378Z,4.40
2018-01-01T16:09:47.526Z,7.73
2018-01-01T16:12:16.460Z,8.07
2018-01-01T16:14:44.654Z,6.67
2018-01-01T16:17:12.842Z,5.60
2018-01-01T16:19:41.776Z,8.67
2018-01-01T16:22:09.957Z,6.73
2018-01-01T16:24:38.184Z,9.40
2018-01-01T16:27:07.666Z,8.00
2018-01-01T16:29:35.833Z,9.90
2018-01-01T16:32:04.261Z,10.43
2018-01-01T16:34:33.167Z,13.03
2018-01-01T16:37:02.833Z,10.07
2018-01-01T16:39:32.250Z,4.17
2018-01-01T16:42:00.637Z,9.33
2018-01-01T16:44:29.008Z,6.37
2018-01-01T16:46:57.954Z,6.10
2018-01-01T16:49:26.121Z,10.50
2018-01-01T16:51:54.336Z,5.43
2018-01-01T16:54:22.491Z,3.83
2018-01-01T16:56:51.473Z,6.00
2018-01-01T16:59:19.891Z,7.40
2018-01-01T17:01:49.418Z,5.20
2018-01-01T17:04:18.439Z,12.83
2018-01-01T17:06:47.466Z,7.60
2018-01-01T17:09:15.842Z,5.83
2018-01-01T17:11:44.030Z,9.70
2018-01-01T17:14:12.182Z,8.80
2018-01-01T17:16:41.268Z,9.27
2018-01-01T17:19:10.055Z,6.80
2018-01-01T17:21:40.602Z,9.77
2018-01-01T17:24:10.107Z,12.57
2018-01-01T17:26:38.192Z,5.03
2018-01-01T17:29:06.362Z,8.33
2018-01-01T17:31:34.622Z,5.50
2018-01-01T17:34:02.795Z,7.23
2018-01-01T17:36:31.264Z,8.83
2018-01-01T17:39:00.059Z,6.97
2018-01-01T17:41:28.267Z,6.70
2018-01-01T17:43:57.057Z,12.13
2018-01-01T17:46:25.743Z,7.43
2018-01-01T17:48:54.125Z,4.80
2018-01-01T17:51:23.688Z,5.33
2018-01-01T17:53:51.880Z,7.83
2018-01-01T17:56:20.079Z,8.83
2018-01-01T17:58:48.313Z,6.63
2018-01-01T18:01:17.407Z,7.87
2018-01-01T18:03:46.041Z,6.50
2018-01-01T18:06:15.186Z,9.30
2018-01-01T18:08:44.115Z,6.77
2018-01-01T18:11:13.121Z,5.00
2018-01-01T18:13:41.290Z,12.70
2018-01-01T18:16:09.594Z,10.97
2018-01-01T18:18:37.764Z,12.70
2018-01-01T18:21:06.771Z,7.53
2018-01-01T18:23:34.968Z,8.17
2018-01-01T18:26:04.590Z,13.37
2018-01-01T18:28:33.797Z,7.30
2018-01-01T18:31:02.421Z,12.63
2018-01-01T18:33:31.475Z,10.10
2018-01-01T18:35:59.629Z,7.40
2018-01-01T18:38:28.590Z,8.17
2018-01-01T18:40:56.763Z,5.30
2018-01-01T18:43:25.102Z,10.97
2018-01-01T18:45:54.982Z,9.13
2018-01-01T18:48:23.227Z,10.20
2018-01-01T18:50:51.589Z,8.67
2018-01-01T18:53:20.247Z,15.30
2018-01-01T18:55:48.521Z,4.40
2018-01-01T18:58:17.606Z,10.07
2018-01-01T19:00:46.809Z,7.70
2018-01-01T19:03:15.757Z,6.47
2018-01-01T19:05:43.944Z,4.33
2018-01-01T19:08:12.973Z,15.30
2018-01-01T19:10:41.149Z,8.10
2018-01-01T19:13:09.664Z,8.63
2018-01-01T19:15:38.036Z,10.60
2018-01-01T19:18:06.354Z,9.37
2018-01-01T19:20:34.494Z,8.87
2018-01-01T19:23:04.137Z,9.10
2018-01-01T19:25:32.506Z,12.53
2018-01-01T19:28:00.721Z,8.80
2018-01-01T19:30:30.872Z,19.47
2018-01-01T19:32:59.973Z,9.13
2018-01-01T19:35:29.605Z,18.27
2018-01-01T19:37:57.791Z,10.10
2018-01-01T19:40:25.974Z,11.93
2018-01-01T19:42:54.153Z,12.40
2018-01-01T19:45:22.318Z,8.13
2018-01-01T19:47:50.481Z,7.23
2018-01-01T19:50:18.765Z,14.60
2018-01-01T19:52:46.924Z,13.70
2018-01-01T19:55:15.228Z,8.97
2018-01-01T19:57:43.409Z,10.60
2018-01-01T20:00:11.649Z,15.10
2018-01-01T20:02:41.364Z,14.27
2018-01-01T20:05:09.572Z,11.43
2018-01-01T20:07:38.554Z,14.57
2018-01-01T20:10:07.679Z,11.30
2018-01-01T20:12:35.899Z,15.90
2018-01-01T20:15:04.229Z,13.50
2018-01-01T20:17:32.484Z,16.00
2018-01-01T20:20:01.352Z,10.77
2018-01-01T20:22:30.456Z,19.57
2018-01-01T20:24:58.688Z,13.23
2018-01-01T20:27:27.818Z,11.87
2018-01-01T20:29:56.026Z,12.37
2018-01-01T20:32:25.062Z,22.03
2018-01-01T20:34:53.295Z,18.33
2018-01-01T20:37:22.478Z,19.50
2018-01-01T20:39:50.809Z,16.20
2018-01-01T20:42:19.112Z,14.77
2018-01-01T20:44:47.539Z,16.20
2018-01-01T20:47:16.094Z,16.03
2018-01-01T20:49:44.394Z,10.90
2018-01-01T20:52:12.608Z,11.33
2018-01-01T20:54:41.763Z,15.63
2018-01-01T20:57:14.170Z,13.73
2018-01-01T20:59:42.437Z,14.23
2018-01-01T21:02:10.635Z,26.63
2018-01-01T21:04:38.844Z,12.70
2018-01-01T21:07:07.019Z,13.80
2018-01-01T21:09:35.933Z,11.17
2018-01-01T21:12:04.730Z,10.70
2018-01-01T21:14:32.881Z,9.60
2018-01-01T21:17:01.178Z,10.47
2018-01-01T21:19:30.689Z,9.80
2018-01-01T21:21:58.865Z,12.83
2018-01-01T21:24:27.021Z,14.93
2018-01-01T21:26:55.206Z,15.00
2018-01-01T21:29:23.390Z,9.63
2018-01-01T21:31:51.608Z,15.13
2018-01-01T21:34:19.753Z,6.30
2018-01-01T21:36:47.930Z,6.00
2018-01-01T21:39:16.582Z,13.03
2018-01-01T21:41:44.750Z,6.23
2018-01-01T21:44:12.894Z,12.87
2018-01-01T21:46:41.062Z,7.27
2018-01-01T21:49:09.251Z,15.33
2018-01-01T21:51:38.193Z,5.60
2018-01-01T21:54:07.038Z,4.73
2018-01-01T21:56:35.992Z,7.70
2018-01-01T21:59:04.630Z,4.07
2018-01-01T22:01:32.803Z,4.57
2018-01-01T22:04:00.998Z,1.87
2018-01-01T22:06:29.290Z,5.03
2018-01-01T22:08:57.434Z,3.00
2018-01-01T22:11:25.609Z,2.40
2018-01-01T22:13:53.787Z,9.17
2018-01-01T22:16:21.955Z,2.93
2018-01-01T22:18:50.101Z,4.30
2018-01-01T22:21:19.050Z,1.50
2018-01-01T22:23:47.209Z,4.93
2018-01-01T22:26:15.419Z,3.97
2018-01-01T22:28:43.572Z,4.73
2018-01-01T22:31:11.791Z,2.03
2018-01-01T22:33:39.954Z,1.50
2018-01-01T22:36:08.091Z,2.80
2018-01-01T22:38:36.257Z,2.10
2018-01-01T22:41:04.516Z,1.30
2018-01-01T22:43:32.689Z,2.50
2018-01-01T22:46:00.845Z,5.17
2018-01-01T22:48:29.797Z,2.20
2018-01-01T22:50:57.955Z,1.50
2018-01-01T22:53:26.894Z,1.57
2018-01-01T22:55:55.065Z,1.80
2018-01-01T22:58:24.010Z,1.47
2018-01-01T23:00:52.169Z,2.30
2018-01-01T23:03:20.346Z,1.63
2018-01-01T23:05:48.476Z,6.17
2018-01-01T23:08:17.417Z,2.80
2018-01-01T23:10:45.574Z,2.40
2018-01-01T23:13:13.734Z,2.40
2018-01-01T23:15:42.645Z,4.60
2018-01-01T23:18:10.812Z,3.10
2018-01-01T23:20:39.765Z,3.30
2018-01-01T23:23:07.941Z,1.80
2018-01-01T23:25:36.105Z,2.97
2018-01-01T23:28:04.289Z,2.53
2018-01-01T23:30:32.477Z,4.30
2018-01-01T23:33:01.432Z,5.63
2018-01-01T23:35:29.697Z,2.17
2018-01-01T23:37:58.230Z,2.80
2018-01-01T23:40:26.388Z,3.77
2018-01-01T23:42:54.623Z,4.27
2018-01-01T23:45:23.281Z,6.40
2018-01-01T23:47:52.209Z,2.83
2018-01-01T23:50:20.378Z,6.00
2018-01-01T23:52:48.565Z,7.70
2018-01-01T23:55:17.527Z,3.60
2018-01-01T23:57:45.716Z,9.43
